Flight Track Log - Related Links

Times and Time Zones

All times are in EDT time to prevent confusion due to time zone crossing. See the EJA583 flight status page for this flight to view local times or setup timezone preferences in your user account.

Time Position Orientation Groundspeed Altitude Reporting Facility
EDT Latitude Longitude Course Direction KTS MPH feet Rate Location/Type
Sun 05:04:04 PM 43.9989 -69.1958 219° Southwest 194 223 7,100  Level Boston Center
Sun 05:05:05 PM 43.9308 -69.2225 196° South 225 259 10,300 2,826 Climbing Boston Center
Sun 05:06:05 PM 43.8567 -69.2553 198° South 261 300 12,800 2,542 Climbing Boston Center
Sun 05:07:03 PM 43.7742 -69.2914 198° South 290 334 15,300 2,571 Climbing Boston Center
Sun 05:08:00 PM 43.5621 -69.6635 219° Southwest  Level FlightAware Approximate
Sun 05:08:04 PM 43.6939 -69.3272 198° South 306 352 17,900  Level Boston Center
Sun 05:09:05 PM 43.6094 -69.3603 196° South 313 360 20,700 2,213 Climbing Boston Center
Sun 05:10:06 PM 43.5436 -69.3922 199° South 318 366 22,400 2,288 Climbing Boston Center
Sun 05:11:03 PM 43.4425 -69.4344 197° South 323 372 25,200 2,462 Climbing Boston Center
Sun 05:12:03 PM 43.3600 -69.4700 197° South 316 364 27,200 1,884 Climbing Boston Center
Sun 05:13:04 PM 43.2733 -69.5056 197° South 321 369 29,000 1,488 Climbing Boston Center
Sun 05:14:04 PM 43.1828 -69.5469 198° South 326 375 30,200 1,190 Climbing Boston Center
Sun 05:15:05 PM 43.0900 -69.5883 198° South 344 396 31,400 1,339 Climbing Boston Center
Sun 05:16:05 PM 42.9972 -69.6267 197° South 351 404 32,900 1,322 Climbing Boston Center
Sun 05:17:03 PM 42.8981 -69.6681 197° South 361 415 34,000 1,200 Climbing Boston Center
Sun 05:18:05 PM 42.8011 -69.7119 198° South 367 422 35,300 1,317 Climbing Boston Center
Sun 05:19:06 PM 42.7000 -69.7533 197° South 373 429 36,700 1,220 Climbing Boston Center
Sun 05:20:03 PM 42.6031 -69.7942 197° South 378 435 37,700 915 Climbing Boston Center
Sun 05:21:04 PM 42.5122 -69.8317 197° South 378 435 38,500 893 Climbing Boston Center
Sun 05:22:04 PM 42.4089 -69.8756 197° South 378 435 39,500 744 Climbing Boston Center
Sun 05:23:05 PM 42.2953 -69.9250 198° South 386 444 40,000 252 Climbing Boston Center
Sun 05:24:03 PM 42.2075 -70.0100 216° Southwest 381 438 40,000  Level Boston Center
Sun 05:25:04 PM 42.1533 -70.1100 234° Southwest 387 445 40,000  Level Boston Center
Sun 05:26:04 PM 42.0789 -70.2386 232° Southwest 393 452 40,000  Level Boston Center
Sun 05:27:05 PM 42.0125 -70.3583 233° Southwest 398 458 40,000  Level Boston Center
Sun 05:28:05 PM 41.9519 -70.4719 234° Southwest 394 453 40,000  Level Boston Center
Sun 05:29:03 PM 41.8892 -70.5883 234° Southwest 389 448 40,000  Level Boston Center
Sun 05:30:03 PM 41.8264 -70.7044 234° Southwest 389 448 40,000  Level Boston Center
Sun 05:31:04 PM 41.7614 -70.8175 232° Southwest 389 448 40,000 -50 Level Boston Center
Sun 05:32:04 PM 41.7006 -70.9414 237° Southwest 394 453 39,900 -545 Descending Boston Center
Sun 05:33:05 PM 41.6375 -71.0569 234° Southwest 394 453 38,900 -1,008 Descending Boston Center
Sun 05:34:03 PM 41.5764 -71.1692 234° Southwest 389 448 37,900 -1,160 Descending Boston Center
Sun 05:35:04 PM 41.5128 -71.2814 233° Southwest 389 448 36,600 -1,623 Descending Boston Center
Sun 05:36:05 PM 41.4494 -71.3933 233° Southwest 389 448 34,600 -2,231 Descending Boston Center
Sun 05:37:05 PM 41.3878 -71.5050 234° Southwest 389 448 32,100 -2,288 Descending Boston Center
Sun 05:38:03 PM 41.3219 -71.6081 230° Southwest 384 442 30,100 -1,059 Descending Boston Center
Sun 05:39:04 PM 41.2622 -71.7139 233° Southwest 371 427 30,000 -49 Descending Boston Center
Sun 05:40:05 PM 41.2003 -71.8250 233° Southwest 371 427 30,000  Level Boston Center
Sun 05:41:03 PM 41.1342 -71.9386 232° Southwest 384 442 30,000  Level Boston Center
Sun 05:42:03 PM 41.0661 -72.0631 234° Southwest 399 459 30,000  Level Boston Center
Sun 05:43:04 PM 40.9997 -72.1789 233° Southwest 410 472 30,000 -198 Level Boston Center
Sun 05:44:04 PM 40.9228 -72.3164 234° Southwest 415 478 29,600 -893 Descending Boston Center
Sun 05:45:05 PM 40.8519 -72.4044 223° Southwest 410 472 28,200 -1,289 Descending Boston Center
Sun 05:46:05 PM 40.7686 -72.5031 222° Southwest 402 463 27,000 -1,250 Descending Boston Center
Sun 05:47:05 PM 40.6811 -72.5989 220° Southwest 407 468 25,700 -1,418 Descending Boston Center
Sun 05:48:50 PM 40.5342 -72.7864 224° Southwest 419 482 23,100 -2,000 Descending New York Center
Sun 05:49:50 PM 40.4575 -72.8797 223° Southwest 399 459 20,200 -3,150 Descending New York Center
Sun 05:50:50 PM 40.3958 -72.9594 225° Southwest 362 417 16,800 -2,100 Descending New York Center
Sun 05:51:50 PM 40.3147 -73.0522 221° Southwest 353 406 16,000 -400 Descending New York Center
Sun 05:52:50 PM 40.2486 -73.1286 221° Southwest 357 411 16,000  Level New York Center
Sun 05:53:50 PM 40.1694 -73.2264 223° Southwest 352 405 16,000 -600 Level New York Center
Sun 05:54:50 PM 40.1053 -73.3003 221° Southwest 352 405 14,800 -1,700 Descending New York Center
Sun 05:55:50 PM 40.0283 -73.3950 223° Southwest 347 399 12,600 -1,950 Descending New York Center
Sun 05:56:50 PM 39.9642 -73.4683 221° Southwest 347 399 10,900 -1,750 Descending New York Center
Sun 05:57:50 PM 39.9225 -73.5561 238° Southwest 304 350 9,100 -1,650 Descending New York Center
Sun 05:58:50 PM 39.9328 -73.6486 278° West 263 303 7,600 -1,500 Descending New York Center
Sun 05:59:50 PM 39.9639 -73.7392 294° West 250 288 6,100 -1,550 Descending New York Center
Sun 06:00:50 PM 39.9967 -73.8353 294° West 265 305 4,500 -1,050 Descending New York Center
Sun 06:01:50 PM 40.0178 -73.9067 291° West 254 292 4,000 -250 Descending New York Center
Sun 06:02:50 PM 40.0447 -73.9894 293° West 248 285 4,000  Level New York Center
Sun 06:03:50 PM 40.0733 -74.0828 292° West 254 292 4,000  Level New York Center
Sun 06:04:50 PM 40.0981 -74.1656 291° West 249 287 4,000  Level New York Center
Sun 06:05:50 PM 40.1250 -74.2483 293° West 249 287 4,000  Level New York Center
Sun 06:06:50 PM 40.1478 -74.3200 293° West 249 287 4,000  Level New York Center
Sun 06:07:50 PM 40.1742 -74.4111 291° West 249 287 4,000  Level New York Center
Sun 06:08:50 PM 40.2008 -74.4939 293° West 249 287 4,000  Level New York Center
Sun 06:09:50 PM 40.2086 -74.5733 277° West 249 287 4,000 50 Level New York Center
Sun 06:10:50 PM 40.1914 -74.6511 254° West 228 262 4,100 -50 Climbing New York Center
Sun 06:11:50 PM 40.2053 -74.7389 282° West 228 262 3,900 -600 Descending New York Center
Sun 06:12:50 PM 40.2192 -74.8211 282° West 239 275 2,900 -900 Descending New York Center
Sun 06:13:50 PM 40.1731 -74.8864 227° Southwest 211 243 2,100 -500 Descending New York Center
Sun 06:14:50 PM 40.1469 -74.9175 222° Southwest 174 200 1,900 -450 Descending New York Center
Sun 06:15:50 PM 40.1228 -74.9511 227° Southwest 132 152 1,200 -550 Descending New York Center
Sun 06:16:50 PM 40.1011 -74.9797 225° Southwest 126 145 800 1,400 Descending New York Center
Sun 06:17:50 PM 40.0728 -75.0133 222° Southwest 126 145 4,000 3,200 Climbing New York Center
Sun 06:19:00 PM 40.0667 -75.0000 197° South  Level FlightAware Approximate

Login

Don't have an account? Register now (free) for customized features, flight alerts, and more!